Time;durP1;ratioP1;P1;durP2;ratioP2;P2;SDS_P1;SDS_P2;PMS_P1;PMS_P2;Temp;Humidity;BMP_temperature;BMP_pressure;BME280_temperature;BME280_humidity;BME280_pressure;Samples;Min_cycle;Max_cycle;Signal;HPM_P1;HPM_P2
2021/07/13 00:00:10;;;;;;;21.87;19.67;;;19.90;99.90;;;;;;5076563;28;20490;-77
2021/07/13 00:02:37;;;;;;;22.30;19.77;;;19.80;99.90;;;;;;5075978;28;20504;-77
2021/07/13 00:05:07;;;;;;;23.90;19.17;;;19.70;99.90;;;;;;5076368;28;20900;-77
2021/07/13 00:07:33;;;;;;;21.47;19.33;;;19.70;99.90;;;;;;5076107;28;20482;-77
2021/07/13 00:10:01;;;;;;;21.50;19.20;;;19.70;99.90;;;;;;5076087;28;20483;-77
2021/07/13 00:12:28;;;;;;;21.37;19.17;;;19.60;99.90;;;;;;5076310;28;20496;-77
2021/07/13 00:14:54;;;;;;;22.67;20.57;;;19.70;99.90;;;;;;5076084;28;20456;-77
2021/07/13 00:17:21;;;;;;;19.43;17.60;;;19.50;99.90;;;;;;5076085;28;20506;-77
2021/07/13 00:19:47;;;;;;;21.47;18.60;;;19.30;99.90;;;;;;5076649;28;20441;-78
2021/07/13 00:22:14;;;;;;;20.87;18.63;;;19.50;99.90;;;;;;5076066;28;20496;-77
2021/07/13 00:24:40;;;;;;;20.93;18.80;;;19.50;99.90;;;;;;5076162;28;20512;-77
2021/07/13 00:27:08;;;;;;;23.33;20.93;;;19.50;99.90;;;;;;5082051;28;20451;-77
2021/07/13 00:29:35;;;;;;;21.33;19.13;;;19.50;99.90;;;;;;5076193;28;20467;-77
2021/07/13 00:32:02;;;;;;;21.47;19.47;;;19.50;99.90;;;;;;5076421;28;20503;-77
2021/07/13 00:34:28;;;;;;;20.43;18.33;;;19.50;99.90;;;;;;5077200;28;20479;-76
2021/07/13 00:36:55;;;;;;;23.30;20.90;;;19.60;99.90;;;;;;5081941;28;20868;-76
2021/07/13 00:39:21;;;;;;;21.57;19.37;;;19.60;99.90;;;;;;5076731;28;20495;-77
2021/07/13 00:41:48;;;;;;;21.73;19.63;;;19.50;99.90;;;;;;5076040;28;20500;-78
2021/07/13 00:44:18;;;;;;;21.97;19.60;;;19.40;99.90;;;;;;5075922;28;20479;-77
2021/07/13 00:46:49;;;;;;;21.93;19.73;;;19.50;99.90;;;;;;5075763;28;20897;-77
2021/07/13 00:49:18;;;;;;;22.03;19.87;;;19.50;99.90;;;;;;5075341;28;20539;-77
2021/07/13 00:51:46;;;;;;;20.80;18.70;;;19.50;99.90;;;;;;5075512;28;20532;-77
2021/07/13 00:54:13;;;;;;;20.47;18.47;;;19.50;99.90;;;;;;5075536;28;20930;-77
2021/07/13 00:56:42;;;;;;;20.40;18.50;;;19.60;99.90;;;;;;5075470;28;20483;-76
2021/07/13 00:59:09;;;;;;;21.07;19.07;;;19.50;99.90;;;;;;5075569;28;20480;-77
2021/07/13 01:01:37;;;;;;;21.40;19.30;;;19.40;99.90;;;;;;5075283;28;20487;-76
2021/07/13 01:04:06;;;;;;;24.37;19.17;;;19.40;99.90;;;;;;5075184;28;20965;-77
2021/07/13 01:06:42;;;;;;;19.93;18.03;;;19.30;99.90;;;;;;5075490;28;20561;-77
2021/07/13 01:09:13;;;;;;;20.47;18.50;;;19.30;99.90;;;;;;5075619;28;20464;-77
2021/07/13 01:11:47;;;;;;;19.37;17.07;;;19.30;99.90;;;;;;5074985;28;20471;-77
2021/07/13 01:14:25;;;;;;;20.07;18.07;;;19.30;99.90;;;;;;5074814;28;20947;-78
2021/07/13 01:16:58;;;;;;;20.07;18.00;;;19.30;99.90;;;;;;5075832;28;20461;-77
2021/07/13 01:19:49;;;;;;;20.13;18.20;;;19.20;99.90;;;;;;5076225;28;20833;-78
2021/07/13 01:22:19;;;;;;;18.63;16.83;;;19.20;99.90;;;;;;5075658;28;20591;-77
2021/07/13 01:24:55;;;;;;;21.27;19.07;;;19.50;99.90;;;;;;5076056;28;20476;-78
2021/07/13 01:27:48;;;;;;;21.03;18.93;;;19.20;99.90;;;;;;5075604;28;20487;-77
2021/07/13 01:30:19;;;;;;;19.00;17.10;;;19.20;99.90;;;;;;5074870;28;20464;-76
2021/07/13 01:32:50;;;;;;;19.43;17.43;;;19.00;99.90;;;;;;5074824;28;20472;-76
2021/07/13 01:35:22;;;;;;;22.13;19.87;;;19.10;99.90;;;;;;5074870;28;20464;-77
2021/07/13 01:37:52;;;;;;;21.03;17.37;;;19.00;99.90;;;;;;5074671;28;20860;-76
2021/07/13 01:40:20;;;;;;;20.40;18.20;;;19.10;99.90;;;;;;5074565;28;20507;-77
2021/07/13 01:42:48;;;;;;;20.30;18.20;;;19.10;99.90;;;;;;5074239;28;20510;-78
2021/07/13 01:45:17;;;;;;;20.90;18.80;;;19.10;99.90;;;;;;5074339;28;20890;-76
2021/07/13 01:47:45;;;;;;;21.83;19.50;;;19.20;99.90;;;;;;5074561;28;20443;-76
2021/07/13 01:50:13;;;;;;;25.17;22.57;;;19.00;99.90;;;;;;5074037;28;20486;-76
2021/07/13 01:52:40;;;;;;;26.63;23.83;;;18.80;99.90;;;;;;5074189;28;20525;-77
2021/07/13 01:55:08;;;;;;;30.60;27.00;;;18.70;99.90;;;;;;5074436;28;20442;-76
2021/07/13 01:57:35;;;;;;;30.83;27.57;;;18.90;99.90;;;;;;5074258;28;20503;-78
2021/07/13 02:00:06;;;;;;;30.30;27.20;;;18.90;99.90;;;;;;5074189;28;20443;-77
2021/07/13 02:02:34;;;;;;;27.53;24.60;;;18.80;99.90;;;;;;5074027;28;21106;-77
2021/07/13 02:05:02;;;;;;;25.30;22.40;;;18.80;99.90;;;;;;5074074;28;20482;-77
2021/07/13 02:07:32;;;;;;;24.73;22.13;;;18.80;99.90;;;;;;5074423;28;20448;-77
2021/07/13 02:09:59;;;;;;;28.00;23.63;;;18.80;99.90;;;;;;5075070;28;20447;-78
2021/07/13 02:12:26;;;;;;;22.70;20.30;;;18.80;99.90;;;;;;5073472;28;20503;-77
2021/07/13 02:14:53;;;;;;;22.20;19.80;;;18.70;99.90;;;;;;5075049;28;20478;-77
2021/07/13 02:17:19;;;;;;;20.77;18.77;;;18.70;99.90;;;;;;5073690;28;20917;-77
2021/07/13 02:19:47;;;;;;;21.73;19.43;;;18.70;99.90;;;;;;5073914;28;20547;-77
2021/07/13 02:22:14;;;;;;;20.60;18.60;;;18.70;99.90;;;;;;5074222;28;20527;-77
2021/07/13 02:24:40;;;;;;;19.63;17.53;;;18.70;99.90;;;;;;5073778;28;20482;-76
2021/07/13 02:27:15;;;;;;;19.60;17.50;;;18.70;99.90;;;;;;5073722;28;20517;-76
2021/07/13 02:29:47;;;;;;;19.77;17.67;;;18.70;99.90;;;;;;5073725;28;20462;-78
2021/07/13 02:32:20;;;;;;;23.47;19.90;;;18.70;99.90;;;;;;5073844;28;20524;-77
2021/07/13 02:34:50;;;;;;;20.57;17.90;;;18.70;99.90;;;;;;5073822;28;20556;-76
2021/07/13 02:37:18;;;;;;;20.83;18.70;;;18.90;99.90;;;;;;5073971;28;20865;-77
2021/07/13 02:39:46;;;;;;;20.20;18.10;;;18.50;99.90;;;;;;5074115;28;20493;-76
2021/07/13 02:42:13;;;;;;;19.33;17.23;;;18.60;99.90;;;;;;5074153;28;20473;-76
2021/07/13 02:44:40;;;;;;;20.50;17.23;;;18.60;99.90;;;;;;5073334;28;20479;-77
2021/07/13 02:47:08;;;;;;;18.87;16.87;;;18.50;99.90;;;;;;5073625;28;20573;-78
2021/07/13 02:49:43;;;;;;;19.37;17.30;;;18.50;99.90;;;;;;5073595;28;20486;-77
2021/07/13 02:52:12;;;;;;;20.37;18.17;;;18.60;99.90;;;;;;5073827;28;20502;-76
2021/07/13 02:54:40;;;;;;;21.07;18.70;;;18.60;99.90;;;;;;5073575;28;20542;-76
2021/07/13 02:57:09;;;;;;;18.43;16.73;;;18.60;99.90;;;;;;5073320;28;20443;-76
2021/07/13 02:59:37;;;;;;;18.90;17.03;;;18.60;99.90;;;;;;5073319;28;20456;-76
2021/07/13 03:02:05;;;;;;;19.77;17.87;;;18.60;99.90;;;;;;5072891;28;20482;-76
2021/07/13 03:04:32;;;;;;;17.60;15.83;;;18.60;99.90;;;;;;5073164;28;20441;-77
2021/07/13 03:06:59;;;;;;;18.70;16.90;;;18.60;99.90;;;;;;5073169;28;20921;-76
2021/07/13 03:09:27;;;;;;;19.27;17.27;;;18.60;99.90;;;;;;5073206;28;20462;-75
2021/07/13 03:11:54;;;;;;;19.00;17.20;;;18.60;99.90;;;;;;5073152;28;20467;-76
2021/07/13 03:14:22;;;;;;;19.60;17.60;;;18.60;99.90;;;;;;5073231;28;20450;-77
2021/07/13 03:16:50;;;;;;;19.50;17.40;;;18.50;99.90;;;;;;5074284;28;20449;-76
2021/07/13 03:19:17;;;;;;;19.90;17.80;;;18.60;99.90;;;;;;5073505;28;20966;-76
2021/07/13 03:21:52;;;;;;;18.80;16.93;;;18.70;99.90;;;;;;5073110;28;20504;-76
2021/07/13 03:24:19;;;;;;;18.30;16.50;;;18.70;99.90;;;;;;5075084;28;20431;-76
2021/07/13 03:26:48;;;;;;;20.83;18.57;;;18.60;99.90;;;;;;5077451;28;20513;-76
2021/07/13 03:29:15;;;;;;;18.43;16.67;;;18.60;99.90;;;;;;5077046;28;20450;-78
2021/07/13 03:31:43;;;;;;;19.87;17.77;;;18.60;99.90;;;;;;5076963;28;20499;-77
2021/07/13 03:34:11;;;;;;;19.53;17.53;;;18.70;99.90;;;;;;5077358;28;20883;-78
2021/07/13 03:36:38;;;;;;;18.60;16.60;;;18.70;99.90;;;;;;5077533;28;20500;-76
2021/07/13 03:39:06;;;;;;;19.13;17.33;;;18.70;99.90;;;;;;5078147;28;20473;-76
2021/07/13 03:41:34;;;;;;;22.00;19.60;;;18.60;99.90;;;;;;5077199;28;20515;-76
2021/07/13 03:44:04;;;;;;;18.93;16.93;;;18.50;99.90;;;;;;5076918;28;20449;-77
2021/07/13 03:46:34;;;;;;;19.93;17.87;;;18.50;99.90;;;;;;5076714;28;20501;-78
2021/07/13 03:49:03;;;;;;;23.23;17.70;;;18.60;99.90;;;;;;5076485;28;20430;-77
2021/07/13 03:51:38;;;;;;;24.90;17.67;;;18.80;99.90;;;;;;5076500;28;20548;-77
2021/07/13 03:54:05;;;;;;;18.80;16.90;;;18.70;99.90;;;;;;5076593;28;20520;-77
2021/07/13 03:56:32;;;;;;;19.27;17.17;;;18.80;99.90;;;;;;5076442;28;20503;-77
2021/07/13 03:58:58;;;;;;;21.43;17.90;;;18.80;99.90;;;;;;5076321;28;20446;-77
2021/07/13 04:01:27;;;;;;;18.03;16.13;;;18.90;99.90;;;;;;5094252;22;20862;-77
2021/07/13 04:03:53;;;;;;;17.80;15.97;;;19.00;99.90;;;;;;5055612;28;20978;-76
2021/07/13 04:06:20;;;;;;;17.60;15.90;;;18.90;99.90;;;;;;5055803;28;20522;-77
2021/07/13 04:08:46;;;;;;;19.77;17.83;;;19.00;99.90;;;;;;5055898;28;20860;-77
2021/07/13 04:11:13;;;;;;;17.90;16.17;;;19.00;99.90;;;;;;5055772;28;20891;-76
2021/07/13 04:13:40;;;;;;;20.37;18.30;;;18.80;99.90;;;;;;5055814;28;20534;-77
2021/07/13 04:16:06;;;;;;;18.50;16.73;;;19.00;99.90;;;;;;5055690;28;20870;-77
2021/07/13 04:18:34;;;;;;;17.83;15.93;;;19.10;99.90;;;;;;5055649;28;20446;-77
2021/07/13 04:21:01;;;;;;;20.97;16.00;;;19.10;99.90;;;;;;5055576;28;20479;-77
2021/07/13 04:23:27;;;;;;;18.07;16.33;;;19.10;99.90;;;;;;5055592;28;20486;-76
2021/07/13 04:25:54;;;;;;;18.07;16.27;;;19.30;99.90;;;;;;5055306;28;20538;-77
2021/07/13 04:28:21;;;;;;;17.97;16.17;;;19.30;99.90;;;;;;5055497;28;20447;-76
2021/07/13 04:30:47;;;;;;;20.27;16.60;;;19.30;99.90;;;;;;5055441;28;20486;-76
2021/07/13 04:33:14;;;;;;;20.07;16.40;;;19.70;99.90;;;;;;5055405;28;20503;-76
2021/07/13 04:35:42;;;;;;;17.30;15.50;;;19.40;99.90;;;;;;5054686;28;20918;-77
2021/07/13 04:38:08;;;;;;;18.93;15.60;;;19.40;99.90;;;;;;5055428;28;20477;-77
2021/07/13 04:40:35;;;;;;;19.57;16.67;;;19.60;99.90;;;;;;5055603;28;20790;-76
2021/07/13 04:43:01;;;;;;;16.87;15.10;;;19.40;99.90;;;;;;5055172;28;20598;-76
2021/07/13 04:45:28;;;;;;;21.20;15.80;;;19.50;99.90;;;;;;5055422;28;20477;-76
2021/07/13 04:47:55;;;;;;;18.10;16.30;;;19.60;99.90;;;;;;5055265;28;20912;-76
2021/07/13 04:50:21;;;;;;;19.07;17.17;;;19.60;99.90;;;;;;5055606;28;20492;-76
2021/07/13 04:52:49;;;;;;;18.17;16.03;;;19.50;99.90;;;;;;5055486;28;20468;-77
2021/07/13 04:55:17;;;;;;;18.00;16.20;;;19.50;99.90;;;;;;5055115;28;20449;-77
2021/07/13 04:57:44;;;;;;;17.03;15.33;;;19.60;99.90;;;;;;5055043;28;20548;-76
2021/07/13 05:00:12;;;;;;;19.43;15.83;;;19.60;99.90;;;;;;5054969;28;20452;-78
2021/07/13 05:02:39;;;;;;;16.87;15.13;;;19.70;99.90;;;;;;5054692;28;20505;-77
2021/07/13 05:05:08;;;;;;;18.40;16.40;;;19.80;99.90;;;;;;5055018;28;20491;-76
2021/07/13 05:07:39;;;;;;;20.17;17.07;;;19.80;99.90;;;;;;5055043;28;20477;-76
2021/07/13 05:10:09;;;;;;;16.73;15.07;;;19.80;99.90;;;;;;5055270;28;20570;-77
2021/07/13 05:12:35;;;;;;;17.17;15.47;;;19.90;99.90;;;;;;5054721;28;20470;-77
2021/07/13 05:15:02;;;;;;;19.30;17.23;;;19.90;99.90;;;;;;5054728;28;20481;-76
2021/07/13 05:17:28;;;;;;;21.13;16.40;;;20.00;99.90;;;;;;5054733;28;20442;-76
2021/07/13 05:19:55;;;;;;;20.40;18.33;;;19.80;99.90;;;;;;5054766;28;20449;-76
2021/07/13 05:22:22;;;;;;;17.00;15.30;;;20.10;99.90;;;;;;5054582;28;20524;-76
2021/07/13 05:24:49;;;;;;;18.03;15.97;;;20.10;99.90;;;;;;5054636;28;20447;-76
2021/07/13 05:27:17;;;;;;;18.53;14.50;;;20.20;99.90;;;;;;5054568;28;20517;-77
2021/07/13 05:29:44;;;;;;;17.13;15.20;;;20.20;99.90;;;;;;5054935;28;20540;-76
2021/07/13 05:32:13;;;;;;;18.03;15.73;;;20.40;99.90;;;;;;5054725;28;20469;-77
2021/07/13 05:34:42;;;;;;;16.53;15.03;;;20.30;99.90;;;;;;5054870;28;20449;-77
2021/07/13 05:37:09;;;;;;;17.00;15.20;;;20.30;99.90;;;;;;5054509;28;20525;-77
2021/07/13 05:39:35;;;;;;;17.77;15.97;;;20.40;99.90;;;;;;5054407;28;20874;-77
2021/07/13 05:42:02;;;;;;;19.33;15.83;;;20.50;99.90;;;;;;5054196;28;20500;-76
2021/07/13 05:44:33;;;;;;;15.80;14.30;;;20.50;99.90;;;;;;5054191;28;20450;-77
2021/07/13 05:47:00;;;;;;;18.50;16.63;;;20.60;99.90;;;;;;5052744;28;20493;-77
2021/07/13 05:49:27;;;;;;;19.03;16.60;;;20.60;99.90;;;;;;5053721;28;20474;-77
2021/07/13 05:51:53;;;;;;;16.80;15.20;;;20.70;99.90;;;;;;5053884;28;20934;-77
2021/07/13 05:54:20;;;;;;;17.23;15.43;;;20.70;99.90;;;;;;5053678;28;20957;-77
2021/07/13 05:56:47;;;;;;;16.40;14.90;;;20.70;99.90;;;;;;5053803;28;20878;-77
2021/07/13 05:59:14;;;;;;;16.80;15.00;;;20.70;99.90;;;;;;5053554;28;20445;-77
2021/07/13 06:01:41;;;;;;;17.10;14.67;;;20.80;99.90;;;;;;5053429;28;20477;-76
2021/07/13 06:04:08;;;;;;;16.50;14.80;;;20.80;99.90;;;;;;5053693;28;20894;-76
2021/07/13 06:06:35;;;;;;;16.00;13.13;;;21.00;99.90;;;;;;5053752;28;20513;-76
2021/07/13 06:09:01;;;;;;;14.83;13.30;;;20.90;99.90;;;;;;5053572;28;20499;-77
2021/07/13 06:11:28;;;;;;;13.80;12.43;;;21.00;99.90;;;;;;5053480;28;20497;-76
2021/07/13 06:13:54;;;;;;;15.70;14.20;;;21.00;99.90;;;;;;5053728;28;20445;-77
2021/07/13 06:16:21;;;;;;;13.90;12.60;;;21.10;99.90;;;;;;5053251;28;21003;-76
2021/07/13 06:18:49;;;;;;;13.57;12.20;;;21.10;99.90;;;;;;5053281;28;21077;-78
2021/07/13 06:21:16;;;;;;;13.33;12.10;;;;;;;;;;5053444;28;20876;-76
2021/07/13 06:23:42;;;;;;;13.40;12.20;;;21.30;99.90;;;;;;5053731;28;20473;-76
2021/07/13 06:26:09;;;;;;;12.90;11.70;;;21.30;99.90;;;;;;5053451;28;20481;-76
2021/07/13 06:28:35;;;;;;;12.67;11.37;;;21.40;99.90;;;;;;5053397;28;20576;-76
2021/07/13 06:31:03;;;;;;;13.57;11.77;;;21.50;99.90;;;;;;5053440;28;20473;-76
2021/07/13 06:33:30;;;;;;;13.87;12.40;;;21.50;99.90;;;;;;5053700;28;20457;-76
2021/07/13 06:35:58;;;;;;;12.27;11.20;;;21.60;99.90;;;;;;5053512;28;20454;-77
2021/07/13 06:38:24;;;;;;;13.93;12.17;;;21.50;99.90;;;;;;5053785;28;20450;-78
2021/07/13 06:40:51;;;;;;;11.70;10.60;;;21.80;99.90;;;;;;5053245;28;20452;-76
2021/07/13 06:43:18;;;;;;;12.80;11.53;;;21.70;99.90;;;;;;5054013;28;20513;-77
2021/07/13 06:45:44;;;;;;;12.43;11.43;;;21.90;99.90;;;;;;5053025;28;20492;-77
2021/07/13 06:48:11;;;;;;;10.30;9.40;;;22.00;99.90;;;;;;5054071;28;20513;-76
2021/07/13 06:50:37;;;;;;;12.07;11.07;;;22.10;99.90;;;;;;5053073;28;20445;-76
2021/07/13 06:53:05;;;;;;;11.27;10.10;;;22.10;99.90;;;;;;5053045;28;20474;-77
2021/07/13 06:55:32;;;;;;;12.80;10.93;;;22.00;99.90;;;;;;5053174;28;20454;-78
2021/07/13 06:57:59;;;;;;;12.47;11.37;;;22.20;99.90;;;;;;5053140;28;20476;-76
2021/07/13 07:00:25;;;;;;;13.30;12.10;;;22.20;99.90;;;;;;5057046;28;20450;-76
2021/07/13 07:02:52;;;;;;;13.47;11.53;;;22.30;99.90;;;;;;5057161;28;20536;-76
2021/07/13 07:05:18;;;;;;;12.10;10.90;;;22.20;99.90;;;;;;5057334;28;20529;-77
2021/07/13 07:07:46;;;;;;;12.37;11.20;;;22.00;99.90;;;;;;5056817;28;20539;-76
2021/07/13 07:10:15;;;;;;;13.50;12.17;;;22.70;99.90;;;;;;5057573;28;20499;-77
2021/07/13 07:12:43;;;;;;;11.23;10.20;;;22.40;99.90;;;;;;5056662;28;20500;-77
2021/07/13 07:15:10;;;;;;;13.87;12.20;;;22.40;99.90;;;;;;5057065;28;20506;-77
2021/07/13 07:17:44;;;;;;;13.03;11.83;;;22.50;99.90;;;;;;5056984;28;20449;-77
2021/07/13 07:20:12;;;;;;;12.60;11.40;;;22.60;99.90;;;;;;5056941;28;20503;-76
2021/07/13 07:22:39;;;;;;;12.33;11.13;;;22.60;99.90;;;;;;5056667;28;20501;-77
2021/07/13 07:25:07;;;;;;;13.60;12.30;;;22.70;99.90;;;;;;5056365;28;20944;-76
2021/07/13 07:27:35;;;;;;;11.13;10.23;;;22.80;99.90;;;;;;5056547;28;20508;-77
2021/07/13 07:30:04;;;;;;;12.50;11.30;;;22.80;99.90;;;;;;5056492;28;20536;-77
2021/07/13 07:32:30;;;;;;;11.30;10.30;;;22.80;99.90;;;;;;5056426;28;20472;-77
2021/07/13 07:34:57;;;;;;;9.77;8.97;;;22.90;99.90;;;;;;5056365;28;20477;-77
2021/07/13 07:37:23;;;;;;;12.33;9.60;;;22.90;99.90;;;;;;5056965;28;20471;-76
2021/07/13 07:39:53;;;;;;;10.33;9.17;;;23.00;99.90;;;;;;5056542;28;20476;-77
2021/07/13 07:42:19;;;;;;;10.73;9.73;;;23.00;99.90;;;;;;5056259;28;20505;-76
2021/07/13 07:44:50;;;;;;;9.93;8.97;;;23.20;99.90;;;;;;5057108;28;20450;-76
2021/07/13 07:47:16;;;;;;;10.83;8.87;;;23.30;99.90;;;;;;5056303;28;20516;-75
2021/07/13 07:49:43;;;;;;;10.80;9.70;;;23.30;99.90;;;;;;5056976;28;20535;-75
2021/07/13 07:52:10;;;;;;;10.67;8.10;;;23.40;99.90;;;;;;5055977;28;20977;-77
2021/07/13 07:54:36;;;;;;;7.77;7.17;;;23.30;99.90;;;;;;5056366;28;20478;-76
2021/07/13 07:57:04;;;;;;;10.07;9.00;;;23.50;99.90;;;;;;5055953;28;20972;-76
2021/07/13 07:59:30;;;;;;;9.00;8.17;;;23.60;99.90;;;;;;5056596;28;20483;-76
2021/07/13 08:01:58;;;;;;;8.57;7.80;;;23.50;99.90;;;;;;5055843;28;20509;-75
2021/07/13 08:04:25;;;;;;;10.33;9.33;;;23.70;99.90;;;;;;5056364;28;20451;-77
2021/07/13 08:06:51;;;;;;;9.90;9.07;;;23.60;99.90;;;;;;5056160;28;20948;-76
2021/07/13 08:09:18;;;;;;;8.37;7.57;;;23.60;99.90;;;;;;5055961;28;20960;-75
2021/07/13 08:11:45;;;;;;;7.30;6.70;;;23.80;99.90;;;;;;5055255;28;20472;-77
2021/07/13 08:14:11;;;;;;;8.00;7.20;;;23.80;99.90;;;;;;5056419;28;20459;-76
2021/07/13 08:16:43;;;;;;;8.93;7.97;;;23.80;99.90;;;;;;5055867;28;20450;-76
2021/07/13 08:19:11;;;;;;;6.47;5.87;;;24.20;99.90;;;;;;5056385;28;20452;-76
2021/07/13 08:21:38;;;;;;;6.60;6.10;;;24.10;99.90;;;;;;5055878;28;20505;-76
2021/07/13 08:24:08;;;;;;;5.33;4.93;;;23.70;99.90;;;;;;5055788;28;20488;-75
2021/07/13 08:26:35;;;;;;;7.07;6.37;;;24.10;99.90;;;;;;5055615;28;20440;-76
2021/07/13 08:29:02;;;;;;;5.80;5.40;;;24.10;99.90;;;;;;5055512;28;20569;-76
2021/07/13 08:31:29;;;;;;;5.30;4.90;;;24.20;99.90;;;;;;5055728;28;20499;-76
2021/07/13 08:33:55;;;;;;;6.00;5.50;;;24.20;99.90;;;;;;5055818;28;20449;-77
2021/07/13 08:36:23;;;;;;;4.23;3.93;;;24.00;99.90;;;;;;5056003;28;20534;-77
2021/07/13 08:38:56;;;;;;;6.50;5.90;;;24.50;99.90;;;;;;5055843;28;20503;-76
2021/07/13 08:41:23;;;;;;;6.20;5.70;;;25.30;99.90;;;;;;5055755;28;20542;-77
2021/07/13 08:43:50;;;;;;;5.30;4.80;;;24.40;99.90;;;;;;5055459;28;20497;-77
2021/07/13 08:46:17;;;;;;;6.10;5.50;;;24.30;99.90;;;;;;5055291;28;20459;-76
2021/07/13 08:48:44;;;;;;;5.60;5.10;;;24.50;99.90;;;;;;5055230;28;20540;-76
2021/07/13 08:51:10;;;;;;;4.73;4.43;;;24.50;99.90;;;;;;5055053;28;20503;-76
2021/07/13 08:53:40;;;;;;;5.47;5.10;;;24.50;99.90;;;;;;5055067;28;20499;-76
2021/07/13 08:56:07;;;;;;;5.87;5.37;;;24.70;99.90;;;;;;5055118;28;20501;-76
2021/07/13 08:58:35;;;;;;;9.97;6.57;;;24.70;99.90;;;;;;5055161;28;20884;-76
2021/07/13 09:01:02;;;;;;;6.13;5.63;;;24.70;99.90;;;;;;5054578;28;20498;-76
2021/07/13 09:03:32;;;;;;;4.77;4.47;;;24.60;99.90;;;;;;5054817;28;20915;-77
2021/07/13 09:06:00;;;;;;;5.90;5.43;;;24.90;99.90;;;;;;5054909;28;20430;-76
2021/07/13 09:08:28;;;;;;;5.30;4.90;;;24.90;99.90;;;;;;5054866;28;20542;-76
2021/07/13 09:11:09;;;;;;;5.80;5.40;;;24.60;99.90;;;;;;5055422;28;20494;-76
2021/07/13 09:13:41;;;;;;;5.13;4.73;;;25.30;99.90;;;;;;5054442;28;20513;-76
2021/07/13 09:16:11;;;;;;;5.33;4.90;;;24.60;99.90;;;;;;5054661;28;20481;-76
2021/07/13 09:18:39;;;;;;;5.60;5.10;;;25.10;99.90;;;;;;5054653;28;20533;-76
2021/07/13 09:21:11;;;;;;;5.20;4.70;;;25.10;99.90;;;;;;5054425;28;20461;-76
2021/07/13 09:23:59;;;;;;;6.40;5.90;;;25.20;99.90;;;;;;5054531;28;20845;-76
2021/07/13 09:26:41;;;;;;;6.10;5.50;;;25.20;99.90;;;;;;5054632;28;20500;-76
2021/07/13 09:29:08;;;;;;;6.57;6.00;;;25.30;99.90;;;;;;5054370;28;20466;-76
2021/07/13 09:31:36;;;;;;;8.90;7.80;;;25.20;99.90;;;;;;5054159;28;20473;-76
2021/07/13 09:34:03;;;;;;;5.13;4.83;;;25.40;99.90;;;;;;5054166;28;20456;-77
2021/07/13 09:36:29;;;;;;;8.23;7.53;;;25.40;99.90;;;;;;5054202;28;20476;-77
2021/07/13 09:38:56;;;;;;;9.00;5.60;;;25.40;99.90;;;;;;5054657;28;20469;-76
2021/07/13 09:41:24;;;;;;;6.37;5.20;;;25.40;99.90;;;;;;5054835;28;20465;-76
2021/07/13 09:44:00;;;;;;;6.63;6.10;;;25.50;99.90;;;;;;5053921;28;20859;-77
2021/07/13 09:46:29;;;;;;;7.87;7.17;;;25.50;99.90;;;;;;5054677;28;20461;-75
2021/07/13 09:49:19;;;;;;;5.37;4.97;;;25.60;99.90;;;;;;5053869;28;20520;-75
2021/07/13 09:51:47;;;;;;;7.27;6.67;;;25.60;99.90;;;;;;5053824;28;20540;-76
2021/07/13 09:54:38;;;;;;;6.90;5.90;;;25.80;99.90;;;;;;5053898;28;20853;-75
2021/07/13 09:57:07;;;;;;;8.47;7.77;;;25.90;99.90;;;;;;5053925;28;20431;-76
2021/07/13 09:59:35;;;;;;;9.60;8.70;;;25.90;99.90;;;;;;5053652;28;20994;-76
2021/07/13 10:02:06;;;;;;;6.00;5.60;;;26.00;99.90;;;;;;5053636;28;20542;-75
2021/07/13 10:04:35;;;;;;;5.70;5.30;;;26.00;99.90;;;;;;5053794;28;20461;-77
2021/07/13 10:07:05;;;;;;;10.30;9.20;;;26.00;99.90;;;;;;5053560;28;20971;-76
2021/07/13 10:09:36;;;;;;;18.83;14.03;;;26.00;99.90;;;;;;5053611;28;20473;-76
2021/07/13 10:12:07;;;;;;;8.90;8.10;;;25.90;99.90;;;;;;5053880;28;20879;-77
2021/07/13 10:14:37;;;;;;;8.90;7.63;;;26.00;99.90;;;;;;5053706;28;20434;-76
2021/07/13 10:17:06;;;;;;;13.27;11.67;;;26.10;99.90;;;;;;5053544;28;20503;-76
2021/07/13 10:19:35;;;;;;;5.50;5.00;;;26.10;99.90;;;;;;5053667;28;20504;-77
2021/07/13 10:22:05;;;;;;;10.70;9.47;;;26.30;99.90;;;;;;5053666;28;20972;-76
2021/07/13 10:24:32;;;;;;;5.40;5.00;;;26.40;99.90;;;;;;5053512;28;21001;-76
2021/07/13 10:26:59;;;;;;;5.50;5.10;;;26.40;99.90;;;;;;5053540;28;20544;-76
2021/07/13 10:29:44;;;;;;;8.20;7.40;;;26.40;99.90;;;;;;5053549;28;20488;-76
2021/07/13 10:32:31;;;;;;;5.43;5.03;;;26.30;99.90;;;;;;5053150;28;20983;-77
2021/07/13 10:34:59;;;;;;;6.83;6.17;;;26.40;99.90;;;;;;5053597;28;20478;-75
2021/07/13 10:37:28;;;;;;;7.67;6.97;;;26.40;99.90;;;;;;5053824;28;20477;-76
2021/07/13 10:39:57;;;;;;;6.90;6.30;;;26.50;99.90;;;;;;5052918;28;20986;-77
2021/07/13 10:42:47;;;;;;;5.17;4.77;;;26.50;99.90;;;;;;5053227;28;20497;-76
2021/07/13 10:45:18;;;;;;;5.27;4.87;;;26.50;99.90;;;;;;5053585;28;20578;-77
2021/07/13 10:48:09;;;;;;;5.93;5.53;;;26.40;99.90;;;;;;5053090;28;20433;-77
2021/07/13 10:50:47;;;;;;;5.83;5.23;;;26.40;99.90;;;;;;5053231;28;20517;-76
2021/07/13 10:53:21;;;;;;;7.53;5.83;;;26.40;99.90;;;;;;5052988;28;20473;-76
2021/07/13 10:56:06;;;;;;;7.33;5.70;;;26.40;99.90;;;;;;5053094;28;20515;-76
2021/07/13 10:58:49;;;;;;;6.23;5.73;;;26.40;99.90;;;;;;5053304;28;20926;-77
2021/07/13 11:01:29;;;;;;;5.43;5.03;;;26.30;99.90;;;;;;5052704;28;20508;-76
2021/07/13 11:04:24;;;;;;;7.73;4.73;;;26.30;99.90;;;;;;5053131;28;20467;-76
2021/07/13 11:07:00;;;;;;;4.30;3.97;;;26.40;99.90;;;;;;5053272;28;20552;-76
2021/07/13 11:09:29;;;;;;;4.50;4.03;;;26.50;99.90;;;;;;5052861;28;20481;-76
2021/07/13 11:12:19;;;;;;;7.27;5.13;;;26.60;99.90;;;;;;5053279;28;20531;-76
2021/07/13 11:14:59;;;;;;;5.13;4.73;;;26.70;99.90;;;;;;5053405;28;20848;-77
2021/07/13 11:17:32;;;;;;;4.40;4.00;;;26.80;99.90;;;;;;5053046;28;20438;-77
2021/07/13 11:20:06;;;;;;;6.73;4.90;;;26.90;99.90;;;;;;5053467;28;20440;-77
2021/07/13 11:22:35;;;;;;;5.97;5.47;;;27.30;99.90;;;;;;5052524;28;20475;-77
2021/07/13 11:25:01;;;;;;;5.30;4.80;;;27.90;99.90;;;;;;5052893;28;20453;-77
2021/07/13 11:27:28;;;;;;;7.13;4.47;;;27.30;99.90;;;;;;5053231;28;20454;-77
2021/07/13 11:29:55;;;;;;;4.60;4.30;;;27.30;99.90;;;;;;5052497;28;21054;-77
2021/07/13 11:32:22;;;;;;;4.13;3.73;;;27.30;99.90;;;;;;5052873;28;20469;-78
2021/07/13 11:34:50;;;;;;;4.30;3.97;;;27.20;99.90;;;;;;5052906;28;20549;-77
2021/07/13 11:37:18;;;;;;;5.57;5.17;;;27.20;99.90;;;;;;5052849;28;20451;-76
2021/07/13 11:39:45;;;;;;;5.03;4.70;;;27.20;99.90;;;;;;5053083;28;20464;-77
2021/07/13 11:42:14;;;;;;;6.57;5.73;;;27.10;99.90;;;;;;5052922;28;20893;-77
2021/07/13 11:44:44;;;;;;;6.20;5.60;;;27.10;99.90;;;;;;5053027;28;20445;-77
2021/07/13 11:47:11;;;;;;;5.37;4.97;;;27.20;99.90;;;;;;5056244;28;20445;-76
2021/07/13 11:49:39;;;;;;;5.07;4.67;;;27.20;99.90;;;;;;5057003;28;20513;-76
2021/07/13 11:52:09;;;;;;;5.93;5.33;;;27.20;99.90;;;;;;5056953;28;20525;-77
2021/07/13 11:54:37;;;;;;;7.83;5.00;;;27.20;99.90;;;;;;5056579;28;20484;-77
2021/07/13 11:57:05;;;;;;;5.90;5.30;;;27.30;99.90;;;;;;5056879;28;20450;-77
2021/07/13 11:59:33;;;;;;;7.00;5.63;;;26.90;99.90;;;;;;5055965;28;20477;-77
2021/07/13 12:02:02;;;;;;;6.77;5.60;;;27.00;99.90;;;;;;5055954;28;20493;-76
2021/07/13 12:04:32;;;;;;;5.77;5.23;;;27.10;99.90;;;;;;5056990;28;20821;-77
2021/07/13 12:07:01;;;;;;;5.80;5.30;;;27.20;99.90;;;;;;5056687;28;20469;-77
2021/07/13 12:09:30;;;;;;;6.93;6.37;;;27.20;99.90;;;;;;5055995;28;20488;-77
2021/07/13 12:11:59;;;;;;;6.90;6.40;;;27.50;99.90;;;;;;5056067;28;20473;-77
2021/07/13 12:14:27;;;;;;;7.00;6.50;;;27.20;99.90;;;;;;5056175;28;20477;-77
2021/07/13 12:16:57;;;;;;;10.80;9.70;;;27.10;99.90;;;;;;5056322;28;20446;-76
2021/07/13 12:19:26;;;;;;;7.93;7.33;;;27.10;99.90;;;;;;5056506;28;20430;-78
2021/07/13 12:21:55;;;;;;;7.80;7.20;;;27.00;99.90;;;;;;5056014;28;20469;-77
2021/07/13 12:24:25;;;;;;;7.30;6.70;;;26.90;99.90;;;;;;5056077;28;20450;-76
2021/07/13 12:26:55;;;;;;;14.80;12.83;;;26.90;99.90;;;;;;5055529;28;20951;-76
2021/07/13 12:29:22;;;;;;;13.27;11.97;;;26.90;99.90;;;;;;5055794;28;20482;-77
2021/07/13 12:31:55;;;;;;;12.90;11.60;;;26.90;99.90;;;;;;5055606;28;20499;-77
2021/07/13 12:34:23;;;;;;;8.60;7.80;;;27.00;99.90;;;;;;5055857;28;20861;-76
2021/07/13 12:36:51;;;;;;;13.50;12.30;;;27.20;99.90;;;;;;5055552;28;20936;-77
2021/07/13 12:39:20;;;;;;;13.50;12.10;;;27.30;99.90;;;;;;5056153;28;20460;-76
2021/07/13 12:41:59;;;;;;;11.33;10.30;;;27.30;99.90;;;;;;5055532;28;20887;-77